»·PEaware :: N716TH KSMX-KBFL

N716TH :: KSMX-KBFL

FLIGHT INFORMATION

Flight Status: Arrived
Operator: Privately registered:
United States
More flights under this callsign
Pilot: Danny R. (17997)
Aircraft: CESSNA 172 SKYHAWK
(C172)
More flights by this aircraft type
Origin: KSMX Santa Maria Pub/Capt Hancock
United States
Destination: KBFL Meadows
United States
More flights between these airports :: More routes between these airports
Route:
File this flight plan on PilotEdge
Remarks: CAT5
Altitude:
(Current/Filed)
5,500ft
Speed:
(Current/Filed)
100kts
Departed: 05-Feb-18 02:38 PM
Arrived: 05-Feb-18 03:28 PM
Distance/Time
Traveled:
76nm/0:50
Distance/Time
To Go:
Arrived

Flight Plot

Page will automatically refresh every two minutes.


Map Options




Map Legend


Flown Route
Filed Route
Departure Airport
Arrival Airport
Navaid (VOR, NDB)
Fix

Horizontal Profiles

Position Reports

Time Latitude Longitude Heading Altitude Ground
Speed
05-Feb-18 13:57 34.896124 -120.445146 136 265ft 0kts
05-Feb-18 13:58 34.896124 -120.445146 136 265ft 0kts
05-Feb-18 13:59 34.896124 -120.445146 136 265ft 0kts
05-Feb-18 14:00 34.896124 -120.445146 136 265ft 0kts
05-Feb-18 14:01 34.896124 -120.445146 136 265ft 0kts
05-Feb-18 14:02 34.896124 -120.445146 136 265ft 0kts
05-Feb-18 14:03 34.896124 -120.445146 136 265ft 0kts
05-Feb-18 14:04 34.896124 -120.445146 136 265ft 0kts
05-Feb-18 14:06 34.896124 -120.445146 136 265ft 0kts
05-Feb-18 14:07 34.896124 -120.445146 136 265ft 0kts
05-Feb-18 14:08 34.896124 -120.445146 136 265ft 0kts
05-Feb-18 14:09 34.896124 -120.445146 136 265ft 0kts
05-Feb-18 14:10 34.896124 -120.445146 136 265ft 0kts
05-Feb-18 14:11 34.896124 -120.445146 136 265ft 0kts
05-Feb-18 14:12 34.896124 -120.445146 136 265ft 0kts
05-Feb-18 14:13 34.896124 -120.445146 136 265ft 0kts
05-Feb-18 14:14 34.896124 -120.445146 136 265ft 0kts
05-Feb-18 14:15 34.896124 -120.445146 136 265ft 0kts
05-Feb-18 14:16 34.896124 -120.445146 136 265ft 0kts
05-Feb-18 14:17 34.896124 -120.445146 136 265ft 0kts
05-Feb-18 14:18 34.896124 -120.445146 136 265ft 0kts
05-Feb-18 14:19 34.896124 -120.445146 136 265ft 0kts
05-Feb-18 14:20 34.896124 -120.445146 136 265ft 0kts
05-Feb-18 14:21 34.896124 -120.445146 136 265ft 0kts
05-Feb-18 14:22 34.896124 -120.445146 136 265ft 0kts
05-Feb-18 14:23 34.896124 -120.445146 136 265ft 0kts
05-Feb-18 14:24 34.896124 -120.445146 136 265ft 0kts
05-Feb-18 14:25 34.896124 -120.445146 136 265ft 0kts
05-Feb-18 14:26 34.896124 -120.445146 136 265ft 0kts
05-Feb-18 14:27 34.896124 -120.445146 136 265ft 0kts
05-Feb-18 14:28 34.896124 -120.445146 136 265ft 0kts
05-Feb-18 14:29 34.896124 -120.445146 136 265ft 0kts
05-Feb-18 14:30 34.896124 -120.445146 136 265ft 0kts
05-Feb-18 14:31 34.896124 -120.445146 136 265ft 0kts
05-Feb-18 14:32 34.896124 -120.445146 136 265ft 0kts
05-Feb-18 14:33 34.896124 -120.445146 136 265ft 0kts
05-Feb-18 14:34 34.896124 -120.445146 136 265ft 0kts
05-Feb-18 14:35 34.896072 -120.445086 137 265ft 3kts
05-Feb-18 14:36 34.896013 -120.445025 138 265ft 0kts
05-Feb-18 14:37 34.896013 -120.445025 138 265ft 0kts
05-Feb-18 14:38 34.896013 -120.445025 138 265ft 0kts
05-Feb-18 14:39 34.895310 -120.444976 133 265ft 8kts
05-Feb-18 14:40 34.893543 -120.444707 244 265ft 0kts
05-Feb-18 14:41 34.893543 -120.444707 244 265ft 0kts
05-Feb-18 14:42 34.893543 -120.444707 244 265ft 0kts
05-Feb-18 14:42 34.893248 -120.444960 183 265ft 0kts
05-Feb-18 14:44 34.893248 -120.444960 183 265ft 0kts
05-Feb-18 14:44 34.894002 -120.447222 315 265ft 49kts
05-Feb-18 14:46 34.912283 -120.458857 60 1039ft 80kts
05-Feb-18 14:47 34.918823 -120.433143 73 1811ft 79kts
05-Feb-18 14:47 34.923305 -120.411129 78 2412ft 80kts
05-Feb-18 14:48 34.929774 -120.384739 70 3098ft 82kts
05-Feb-18 14:49 34.938877 -120.359115 64 3766ft 82kts
05-Feb-18 14:50 34.946502 -120.335898 67 4326ft 83kts
05-Feb-18 14:51 34.954713 -120.309623 71 4966ft 78kts
05-Feb-18 14:52 34.961307 -120.282724 72 5435ft 94kts
05-Feb-18 14:53 34.969588 -120.250151 76 5616ft 109kts
05-Feb-18 14:54 34.979365 -120.214431 62 5496ft 110kts
05-Feb-18 14:55 34.991654 -120.181196 67 5490ft 105kts
05-Feb-18 14:56 35.002555 -120.148115 68 5492ft 104kts
05-Feb-18 14:57 35.013280 -120.115148 68 5491ft 104kts
05-Feb-18 14:58 35.023989 -120.082181 68 5491ft 104kts
05-Feb-18 14:59 35.034058 -120.051092 68 5488ft 105kts
05-Feb-18 15:00 35.043764 -120.021116 68 5476ft 87kts
05-Feb-18 15:01 35.052370 -119.994632 67 5478ft 85kts
05-Feb-18 15:02 35.063329 -119.960811 68 5481ft 119kts
05-Feb-18 15:03 35.075773 -119.922208 68 5477ft 123kts
05-Feb-18 15:04 35.088467 -119.882231 70 5399ft 124kts
05-Feb-18 15:05 35.102339 -119.844021 61 5415ft 122kts
05-Feb-18 15:06 35.118282 -119.807110 62 5434ft 124kts
05-Feb-18 15:07 35.133885 -119.770325 58 5488ft 122kts
05-Feb-18 15:08 35.149105 -119.734314 58 5480ft 114kts
05-Feb-18 15:09 35.163796 -119.699682 57 5480ft 119kts
05-Feb-18 15:10 35.178852 -119.662338 66 5476ft 127kts
05-Feb-18 15:11 35.192688 -119.622536 58 5475ft 126kts
05-Feb-18 15:12 35.208388 -119.584136 58 5470ft 126kts
05-Feb-18 15:13 35.224054 -119.545532 58 5468ft 126kts
05-Feb-18 15:14 35.239668 -119.506930 58 5469ft 126kts
05-Feb-18 15:15 35.253704 -119.471893 57 5083ft 97kts
05-Feb-18 15:16 35.265395 -119.443060 57 4398ft 96kts
05-Feb-18 15:17 35.277641 -119.412804 58 3743ft 102kts
05-Feb-18 15:18 35.291275 -119.379218 58 3463ft 121kts
05-Feb-18 15:19 35.306138 -119.342283 59 3498ft 121kts
05-Feb-18 15:20 35.321231 -119.304776 59 3523ft 123kts
05-Feb-18 15:21 35.336432 -119.266981 59 3517ft 123kts
05-Feb-18 15:22 35.351549 -119.229309 59 3520ft 123kts
05-Feb-18 15:23 35.366682 -119.191567 59 3515ft 123kts
05-Feb-18 15:24 35.381369 -119.154791 59 3488ft 107kts
05-Feb-18 15:25 35.391201 -119.128989 64 2971ft 96kts
05-Feb-18 15:26 35.400990 -119.097736 58 2062ft 87kts
05-Feb-18 15:27 35.401768 -119.073915 155 1382ft 82kts
05-Feb-18 15:28 35.385629 -119.057194 135 1143ft 68kts
05-Feb-18 15:29 35.383997 -119.039212 36 1156ft 60kts
05-Feb-18 15:30 35.395609 -119.026026 29 1213ft 58kts
05-Feb-18 15:31 35.407402 -119.026004 305 1172ft 61kts
05-Feb-18 15:32 35.418577 -119.041288 313 855ft 59kts
05-Feb-18 15:33 35.429911 -119.054976 315 542ft 50kts
05-Feb-18 15:34 35.434803 -119.060063 57 510ft 0kts
05-Feb-18 15:35 35.435284 -119.059427 45 510ft 15kts
05-Feb-18 15:36 35.434147 -119.054385 135 510ft 28kts
05-Feb-18 15:37 35.428560 -119.047584 118 510ft 11kts
05-Feb-18 15:38 35.429469 -119.046580 154 510ft 0kts
05-Feb-18 15:39 35.429469 -119.046580 154 510ft 0kts

Navigation Log

Ident Type
1. KSMX Airport
2. KBFL Airport